Time,TemperatureF,DewpointF,PressureIn,WindDirection,WindDirectionDegrees,WindSpeedMPH,WindSpeedGustMPH,Humidity,HourlyPrecipIn,Conditions,Clouds,dailyrainin,SolarRadiationWatts/m^2,SoftwareType,DateUTC
2013-07-01 00:22:00,57.0,42.0,-100.00,NE,39,8.0,21.0,57,0.00,,,-99.99,1.000000,,2013-07-01 08:22:00,
2013-07-01 00:33:00,57.0,42.0,-100.00,NE,39,8.0,21.0,57,0.00,,,-99.99,1.000000,,2013-07-01 08:33:00,
2013-07-01 00:42:00,57.0,42.0,-100.00,NE,39,8.0,21.0,57,0.00,,,-99.99,1.000000,,2013-07-01 08:42:00,
2013-07-01 00:52:00,57.0,42.0,-100.00,NE,39,8.0,21.0,57,0.00,,,-99.99,1.000000,,2013-07-01 08:52:00,
2013-07-01 01:22:00,56.0,39.0,-100.00,SSE,161,10.0,21.0,52,0.00,,,0.00,0.000000,,2013-07-01 09:22:00,
2013-07-01 01:33:00,56.0,39.0,-100.00,SSE,161,10.0,21.0,52,0.00,,,0.00,0.000000,,2013-07-01 09:33:00,
2013-07-01 01:43:00,56.0,39.0,-100.00,SSE,161,10.0,21.0,52,0.00,,,0.00,0.000000,,2013-07-01 09:43:00,
2013-07-01 01:53:00,56.0,39.0,-100.00,SSE,161,10.0,21.0,52,0.00,,,0.00,0.000000,,2013-07-01 09:53:00,
2013-07-01 02:22:00,56.0,39.0,-100.00,SSE,147,9.0,18.0,52,0.00,,,0.00,0.000000,,2013-07-01 10:22:00,
2013-07-01 02:33:00,56.0,39.0,-100.00,SSE,147,9.0,18.0,52,0.00,,,0.00,0.000000,,2013-07-01 10:33:00,
2013-07-01 02:42:00,56.0,39.0,-100.00,SSE,147,9.0,18.0,52,0.00,,,0.00,0.000000,,2013-07-01 10:42:00,
2013-07-01 02:52:00,56.0,39.0,-100.00,SSE,147,9.0,18.0,52,0.00,,,0.00,0.000000,,2013-07-01 10:52:00,
2013-07-01 03:22:00,55.0,40.0,-100.00,SSE,153,9.0,16.0,56,0.00,,,0.00,0.000000,,2013-07-01 11:22:00,
2013-07-01 03:33:00,55.0,40.0,-100.00,SSE,153,9.0,16.0,56,0.00,,,0.00,0.000000,,2013-07-01 11:33:00,
2013-07-01 03:43:00,55.0,40.0,-100.00,SSE,153,9.0,16.0,56,0.00,,,0.00,0.000000,,2013-07-01 11:43:00,
2013-07-01 03:52:00,55.0,40.0,-100.00,SSE,153,9.0,16.0,56,0.00,,,0.00,0.000000,,2013-07-01 11:52:00,
2013-07-01 04:21:00,52.0,41.0,-100.00,ESE,108,8.0,15.0,66,0.00,,,0.00,0.000000,,2013-07-01 12:21:00,
2013-07-01 04:33:00,52.0,41.0,-100.00,ESE,108,8.0,15.0,66,0.00,,,0.00,0.000000,,2013-07-01 12:33:00,
2013-07-01 04:43:00,52.0,41.0,-100.00,ESE,108,8.0,15.0,66,0.00,,,0.00,0.000000,,2013-07-01 12:43:00,
2013-07-01 04:53:00,52.0,41.0,-100.00,ESE,108,8.0,15.0,66,0.00,,,0.00,0.000000,,2013-07-01 12:53:00,
2013-07-01 05:33:00,49.0,39.0,-100.00,SSW,212,4.0,19.0,69,0.06,,,0.06,0.000000,,2013-07-01 13:33:00,
2013-07-01 05:43:00,49.0,39.0,-100.00,SSW,212,4.0,19.0,69,0.06,,,0.06,0.000000,,2013-07-01 13:43:00,
2013-07-01 05:53:00,49.0,39.0,-100.00,SSW,212,4.0,19.0,69,0.06,,,0.06,0.000000,,2013-07-01 13:53:00,
2013-07-01 06:34:00,49.0,43.0,-100.00,SE,140,7.0,15.0,81,0.03,,,0.09,6.000000,,2013-07-01 14:34:00,
2013-07-01 06:43:00,49.0,43.0,-100.00,SE,140,7.0,15.0,81,0.03,,,0.09,6.000000,,2013-07-01 14:43:00,
2013-07-01 06:52:00,49.0,43.0,-100.00,SE,140,7.0,15.0,81,0.03,,,0.09,6.000000,,2013-07-01 14:52:00,
2013-07-01 07:23:00,50.0,41.0,-100.00,ESE,120,9.0,17.0,70,0.00,,,-99.99,10.000000,,2013-07-01 15:23:00,
2013-07-01 07:34:00,50.0,41.0,-100.00,ESE,120,9.0,17.0,70,0.00,,,-99.99,10.000000,,2013-07-01 15:34:00,
2013-07-01 07:43:00,50.0,41.0,-100.00,ESE,120,9.0,17.0,70,0.00,,,-99.99,10.000000,,2013-07-01 15:43:00,
2013-07-01 07:52:00,50.0,41.0,-100.00,ESE,120,9.0,17.0,70,0.00,,,-99.99,10.000000,,2013-07-01 15:52:00,
2013-07-01 08:33:00,51.0,40.0,-100.00,SSE,164,10.0,19.0,66,0.01,,,0.10,16.000000,,2013-07-01 16:33:00,
2013-07-01 08:44:00,51.0,40.0,-100.00,SSE,164,10.0,19.0,66,0.01,,,0.10,16.000000,,2013-07-01 16:44:00,
2013-07-01 08:53:00,51.0,40.0,-100.00,SSE,164,10.0,19.0,66,0.01,,,0.10,16.000000,,2013-07-01 16:53:00,
2013-07-01 09:23:00,50.0,39.0,-100.00,SSW,209,6.0,20.0,66,0.00,,,0.10,29.000000,,2013-07-01 17:23:00,
2013-07-01 09:33:00,50.0,39.0,-100.00,SSW,209,6.0,20.0,66,0.00,,,0.10,29.000000,,2013-07-01 17:33:00,
2013-07-01 09:43:00,50.0,39.0,-100.00,SSW,209,6.0,20.0,66,0.00,,,0.10,29.000000,,2013-07-01 17:43:00,
2013-07-01 09:53:00,50.0,39.0,-100.00,SSW,209,6.0,20.0,66,0.00,,,0.10,29.000000,,2013-07-01 17:53:00,
2013-07-01 10:22:00,49.0,42.0,-100.00,ESE,118,5.0,14.0,76,0.00,,,-99.99,42.000000,,2013-07-01 18:22:00,
2013-07-01 10:33:00,49.0,42.0,-100.00,ESE,118,5.0,14.0,76,0.00,,,-99.99,42.000000,,2013-07-01 18:33:00,
2013-07-01 10:43:00,49.0,42.0,-100.00,ESE,118,5.0,14.0,76,0.00,,,-99.99,42.000000,,2013-07-01 18:43:00,
2013-07-01 10:52:00,49.0,42.0,-100.00,ESE,118,5.0,14.0,76,0.00,,,-99.99,42.000000,,2013-07-01 18:52:00,
2013-07-01 11:33:00,52.0,39.0,-100.00,SSE,149,8.0,15.0,61,0.00,,,0.10,81.000000,,2013-07-01 19:33:00,
2013-07-01 11:44:00,52.0,39.0,-100.00,SSE,149,8.0,15.0,61,0.00,,,0.10,81.000000,,2013-07-01 19:44:00,
2013-07-01 11:52:00,52.0,39.0,-100.00,SSE,149,8.0,15.0,61,0.00,,,0.10,81.000000,,2013-07-01 19:52:00,
2013-07-01 12:22:00,50.0,47.0,-100.00,ENE,65,5.0,12.0,89,0.00,,,0.10,87.000000,,2013-07-01 20:22:00,
2013-07-01 12:34:00,50.0,47.0,-100.00,ENE,65,5.0,12.0,89,0.00,,,0.10,87.000000,,2013-07-01 20:34:00,
2013-07-01 12:43:00,50.0,47.0,-100.00,ENE,65,5.0,12.0,89,0.00,,,0.10,87.000000,,2013-07-01 20:43:00,
2013-07-01 12:52:00,50.0,47.0,-100.00,ENE,65,5.0,12.0,89,0.00,,,0.10,87.000000,,2013-07-01 20:52:00,
2013-07-01 13:23:00,51.0,40.0,-100.00,East,101,8.0,16.0,67,0.00,,,0.10,100.000000,,2013-07-01 21:23:00,
2013-07-01 13:34:00,51.0,40.0,-100.00,East,101,8.0,16.0,67,0.00,,,0.10,100.000000,,2013-07-01 21:34:00,
2013-07-01 13:43:00,51.0,40.0,-100.00,East,101,8.0,16.0,67,0.00,,,0.10,100.000000,,2013-07-01 21:43:00,
2013-07-01 13:53:00,51.0,40.0,-100.00,East,101,8.0,16.0,67,0.00,,,0.10,100.000000,,2013-07-01 21:53:00,
2013-07-01 14:33:00,52.0,41.0,-100.00,ESE,119,6.0,16.0,66,0.00,,,0.10,165.000000,,2013-07-01 22:33:00,
2013-07-01 14:42:00,52.0,41.0,-100.00,ESE,119,6.0,16.0,66,0.00,,,0.10,165.000000,,2013-07-01 22:42:00,
2013-07-01 14:53:00,52.0,41.0,-100.00,ESE,119,6.0,16.0,66,0.00,,,0.10,165.000000,,2013-07-01 22:53:00,
2013-07-01 15:22:00,53.0,39.0,-100.00,SE,134,7.0,18.0,59,0.00,,,0.10,198.000000,,2013-07-01 23:22:00,
2013-07-01 15:33:00,53.0,39.0,-100.00,SE,134,7.0,18.0,59,0.00,,,0.10,198.000000,,2013-07-01 23:33:00,
2013-07-01 15:43:00,53.0,39.0,-100.00,SE,134,7.0,18.0,59,0.00,,,0.10,198.000000,,2013-07-01 23:43:00,
2013-07-01 15:53:00,53.0,39.0,-100.00,SE,134,7.0,18.0,59,0.00,,,0.10,198.000000,,2013-07-01 23:53:00,
2013-07-01 16:22:00,54.0,39.0,-100.00,SE,143,8.0,17.0,56,0.00,,,0.10,259.000000,,2013-07-02 00:22:00,
2013-07-01 16:33:00,54.0,39.0,-100.00,SE,143,8.0,17.0,56,0.00,,,0.10,259.000000,,2013-07-02 00:33:00,
2013-07-01 16:43:00,54.0,39.0,-100.00,SE,143,8.0,17.0,56,0.00,,,0.10,259.000000,,2013-07-02 00:43:00,
2013-07-01 16:53:00,54.0,39.0,-100.00,SE,143,8.0,17.0,56,0.00,,,0.10,259.000000,,2013-07-02 00:53:00,
2013-07-01 17:22:00,54.0,39.0,-100.00,SE,124,7.0,15.0,57,0.00,,,0.10,224.000000,,2013-07-02 01:22:00,
2013-07-01 17:33:00,54.0,39.0,-100.00,SE,124,7.0,15.0,57,0.00,,,0.10,224.000000,,2013-07-02 01:33:00,
2013-07-01 17:43:00,54.0,39.0,-100.00,SE,124,7.0,15.0,57,0.00,,,0.10,224.000000,,2013-07-02 01:43:00,
2013-07-01 17:53:00,54.0,39.0,-100.00,SE,124,7.0,15.0,57,0.00,,,0.10,224.000000,,2013-07-02 01:53:00,
2013-07-01 18:22:00,53.0,39.0,-100.00,SSE,150,8.0,16.0,60,0.00,,,0.10,181.000000,,2013-07-02 02:22:00,
2013-07-01 18:33:00,53.0,39.0,-100.00,SSE,150,8.0,16.0,60,0.00,,,0.10,181.000000,,2013-07-02 02:33:00,
2013-07-01 18:43:00,53.0,39.0,-100.00,SSE,150,8.0,16.0,60,0.00,,,0.10,181.000000,,2013-07-02 02:43:00,
2013-07-01 18:53:00,53.0,39.0,-100.00,SSE,150,8.0,16.0,60,0.00,,,0.10,181.000000,,2013-07-02 02:53:00,
2013-07-01 19:24:00,53.0,39.0,-100.00,SE,145,7.0,17.0,59,0.00,,,0.10,141.000000,,2013-07-02 03:24:00,
2013-07-01 19:32:00,53.0,39.0,-100.00,SE,145,7.0,17.0,59,0.00,,,0.10,141.000000,,2013-07-02 03:32:00,
2013-07-01 19:43:00,53.0,39.0,-100.00,SE,145,7.0,17.0,59,0.00,,,0.10,141.000000,,2013-07-02 03:43:00,
2013-07-01 19:53:00,53.0,39.0,-100.00,SE,145,7.0,17.0,59,0.00,,,0.10,141.000000,,2013-07-02 03:53:00,
2013-07-01 20:22:00,52.0,38.0,-100.00,ESE,106,4.0,12.0,59,0.00,,,0.10,106.000000,,2013-07-02 04:22:00,
2013-07-01 20:32:00,52.0,38.0,-100.00,ESE,106,4.0,12.0,59,0.00,,,0.10,106.000000,,2013-07-02 04:32:00,
2013-07-01 20:42:00,52.0,38.0,-100.00,ESE,106,4.0,12.0,59,0.00,,,0.10,106.000000,,2013-07-02 04:42:00,
2013-07-01 20:53:00,52.0,38.0,-100.00,ESE,106,4.0,12.0,59,0.00,,,0.10,106.000000,,2013-07-02 04:53:00,
2013-07-01 21:22:00,52.0,41.0,-100.00,NNW,334,2.0,6.0,67,0.00,,,0.10,63.000000,,2013-07-02 05:22:00,
2013-07-01 21:32:00,52.0,41.0,-100.00,NNW,334,2.0,6.0,67,0.00,,,0.10,63.000000,,2013-07-02 05:32:00,
2013-07-01 21:43:00,52.0,41.0,-100.00,NNW,334,2.0,6.0,67,0.00,,,0.10,63.000000,,2013-07-02 05:43:00,
2013-07-01 21:53:00,52.0,41.0,-100.00,NNW,334,2.0,6.0,67,0.00,,,0.10,63.000000,,2013-07-02 05:53:00,
2013-07-01 22:23:00,50.0,45.0,-100.00,North,3,3.0,6.0,83,0.00,,,0.10,33.000000,,2013-07-02 06:23:00,
2013-07-01 22:33:00,50.0,45.0,-100.00,North,3,3.0,6.0,83,0.00,,,0.10,33.000000,,2013-07-02 06:33:00,
2013-07-01 22:43:00,50.0,45.0,-100.00,North,3,3.0,6.0,83,0.00,,,0.10,33.000000,,2013-07-02 06:43:00,
2013-07-01 22:53:00,50.0,45.0,-100.00,North,3,3.0,6.0,83,0.00,,,0.10,33.000000,,2013-07-02 06:53:00,
2013-07-01 23:22:00,49.0,46.0,-100.00,WNW,284,3.0,6.0,90,0.00,,,0.10,13.000000,,2013-07-02 07:22:00,
2013-07-01 23:33:00,49.0,46.0,-100.00,WNW,284,3.0,6.0,90,0.00,,,0.10,13.000000,,2013-07-02 07:33:00,
2013-07-01 23:44:00,49.0,46.0,-100.00,WNW,284,3.0,6.0,90,0.00,,,0.10,13.000000,,2013-07-02 07:44:00,
2013-07-01 23:52:00,49.0,46.0,-100.00,WNW,284,3.0,6.0,90,0.00,,,0.10,13.000000,,2013-07-02 07:52:00,